ABL1325 RKPK-RJOT
Flight info
| Callsign | ABL1325 |
|---|---|
| Flight time | N/A |
| Altitude | 29000 |
| Route | OPONO3 PSN Z84 KALEK Y206 MIHOU Y39 OYE WIMPY |
| Aircraft | A321/M-SDE3FGHIRWY/LB1 |
Departure
| Time | 2026-04-30 21:26 |
|---|---|
| Airport | Gimhae International Airport (RKPK) |
Arrival
| Time | N/A |
|---|---|
| Airport | Takamatsu Airport (RJOT) |
| Time | Latitude | Longitude | Altitude | Speed | Heading |
|---|---|---|---|---|---|
| 2026-04-30 20:35 | 35.17134 | 128.94582 | 26 ft | 0 kts | 86° |
| 2026-04-30 21:13 | 35.17134 | 128.94581 | 23 ft | 2 kts | 86° |
| 2026-04-30 21:14 | 35.17132 | 128.94551 | 23 ft | 4 kts | 86° |
| 2026-04-30 21:14 | 35.17131 | 128.94523 | 23 ft | 4 kts | 90° |
| 2026-04-30 21:14 | 35.17136 | 128.94494 | 26 ft | 4 kts | 133° |
| 2026-04-30 21:14 | 35.17157 | 128.94481 | 24 ft | 4 kts | 179° |
| 2026-04-30 21:15 | 35.17181 | 128.94482 | 25 ft | 1 kts | 174° |
| 2026-04-30 21:15 | 35.17181 | 128.94481 | 25 ft | 0 kts | 174° |
| 2026-04-30 21:19 | 35.17173 | 128.94482 | 24 ft | 4 kts | 174° |
| 2026-04-30 21:19 | 35.17127 | 128.94488 | 24 ft | 9 kts | 174° |
| 2026-04-30 21:20 | 35.17085 | 128.94461 | 23 ft | 7 kts | 238° |
| 2026-04-30 21:20 | 35.17078 | 128.94431 | 25 ft | 4 kts | 264° |
| 2026-04-30 21:20 | 35.17075 | 128.94398 | 23 ft | 4 kts | 264° |
| 2026-04-30 21:20 | 35.17073 | 128.94363 | 23 ft | 4 kts | 264° |
| 2026-04-30 21:21 | 35.17049 | 128.94319 | 23 ft | 9 kts | 202° |
| 2026-04-30 21:21 | 35.16985 | 128.94286 | 23 ft | 9 kts | 234° |
| 2026-04-30 21:21 | 35.16975 | 128.94216 | 23 ft | 1 kts | 261° |
| 2026-04-30 21:22 | 35.16974 | 128.94214 | 23 ft | 0 kts | 261° |
| 2026-04-30 21:22 | 35.16970 | 128.94166 | 23 ft | 3 kts | 263° |
| 2026-04-30 21:23 | 35.16968 | 128.94152 | 23 ft | 1 kts | 264° |
| 2026-04-30 21:23 | 35.16966 | 128.94126 | 23 ft | 5 kts | 264° |
| 2026-04-30 21:23 | 35.16972 | 128.94062 | 23 ft | 4 kts | 314° |
| 2026-04-30 21:24 | 35.17001 | 128.94055 | 22 ft | 4 kts | 347° |
| 2026-04-30 21:24 | 35.17022 | 128.94051 | 22 ft | 0 kts | 352° |
| 2026-04-30 21:25 | 35.17153 | 128.94032 | 23 ft | 52 kts | 354° |
| 2026-04-30 21:25 | 35.17741 | 128.93957 | 25 ft | 116 kts | 354° |
| 2026-04-30 21:25 | 35.18723 | 128.93835 | 90 ft | 161 kts | 353° |
| 2026-04-30 21:26 | 35.20789 | 128.93130 | 1371 ft | 165 kts | 311° |
| 2026-04-30 21:26 | 35.21457 | 128.91893 | 1724 ft | 184 kts | 300° |
| 2026-04-30 21:27 | 35.22835 | 128.88856 | 2407 ft | 219 kts | 300° |
| 2026-04-30 21:27 | 35.23585 | 128.87253 | 3357 ft | 214 kts | 301° |
| 2026-04-30 21:27 | 35.24264 | 128.85592 | 3989 ft | 229 kts | 288° |
| 2026-04-30 21:28 | 35.23318 | 128.81695 | 5263 ft | 270 kts | 230° |
| 2026-04-30 21:28 | 35.21683 | 128.80477 | 6058 ft | 284 kts | 202° |
| 2026-04-30 21:28 | 35.17679 | 128.80303 | 7598 ft | 301 kts | 163° |
| 2026-04-30 21:29 | 35.15861 | 128.81585 | 8358 ft | 306 kts | 136° |
| 2026-04-30 21:29 | 35.13802 | 128.88838 | 10295 ft | 320 kts | 97° |
| 2026-04-30 21:30 | 35.13018 | 128.94575 | 10699 ft | 360 kts | 98° |
| 2026-04-30 21:31 | 35.12638 | 129.03828 | 12644 ft | 369 kts | 81° |
| 2026-04-30 21:31 | 35.13267 | 129.10056 | 13962 ft | 375 kts | 81° |
| 2026-04-30 21:32 | 35.13906 | 129.16406 | 15180 ft | 380 kts | 82° |
| 2026-04-30 21:32 | 35.14232 | 129.19632 | 15763 ft | 384 kts | 82° |
| 2026-04-30 21:32 | 35.14558 | 129.22880 | 16373 ft | 387 kts | 82° |
| 2026-04-30 21:32 | 35.14883 | 129.26160 | 16949 ft | 390 kts | 82° |
| 2026-04-30 21:33 | 35.15210 | 129.29467 | 17533 ft | 394 kts | 82° |
| 2026-04-30 21:33 | 35.15867 | 129.36155 | 18629 ft | 400 kts | 82° |
| 2026-04-30 21:33 | 35.16197 | 129.39554 | 19050 ft | 405 kts | 83° |
| 2026-04-30 21:34 | 35.16531 | 129.42985 | 19563 ft | 408 kts | 82° |
| 2026-04-30 21:34 | 35.17213 | 129.49923 | 20593 ft | 414 kts | 82° |
| 2026-04-30 21:34 | 35.17557 | 129.53417 | 21170 ft | 415 kts | 83° |
| 2026-04-30 21:35 | 35.17897 | 129.56924 | 21714 ft | 417 kts | 83° |
| 2026-04-30 21:35 | 35.18235 | 129.60452 | 22205 ft | 420 kts | 84° |
| 2026-04-30 21:35 | 35.18577 | 129.64024 | 22576 ft | 426 kts | 84° |
| 2026-04-30 21:35 | 35.18922 | 129.67644 | 22974 ft | 430 kts | 84° |
| 2026-04-30 21:36 | 35.19269 | 129.71281 | 23498 ft | 431 kts | 84° |
| 2026-04-30 21:36 | 35.19615 | 129.74939 | 23783 ft | 436 kts | 84° |
| 2026-04-30 21:37 | 35.20667 | 129.86087 | 24818 ft | 445 kts | 85° |
| 2026-04-30 21:37 | 35.21017 | 129.89849 | 25179 ft | 447 kts | 85° |
| 2026-04-30 21:37 | 35.21406 | 129.93629 | 25533 ft | 449 kts | 85° |
| 2026-04-30 21:37 | 35.21836 | 129.97420 | 25894 ft | 451 kts | 84° |
| 2026-04-30 21:38 | 35.22292 | 130.01225 | 26246 ft | 453 kts | 84° |
| 2026-04-30 21:38 | 35.22753 | 130.05049 | 26523 ft | 457 kts | 84° |
| 2026-04-30 21:38 | 35.23209 | 130.08904 | 26795 ft | 460 kts | 85° |
| 2026-04-30 21:38 | 35.23655 | 130.12795 | 27085 ft | 463 kts | 85° |
| 2026-04-30 21:39 | 35.24088 | 130.16657 | 27378 ft | 466 kts | 85° |
| 2026-04-30 21:39 | 35.24522 | 130.20596 | 27668 ft | 469 kts | 85° |
| 2026-04-30 21:39 | 35.24954 | 130.24564 | 27949 ft | 472 kts | 85° |
| 2026-04-30 21:39 | 35.25389 | 130.28556 | 28169 ft | 476 kts | 86° |
| 2026-04-30 21:40 | 35.25829 | 130.32582 | 28468 ft | 477 kts | 86° |
| 2026-04-30 21:40 | 35.26272 | 130.36613 | 28765 ft | 479 kts | 86° |
| 2026-04-30 21:40 | 35.27162 | 130.44557 | 28833 ft | 463 kts | 86° |
| 2026-04-30 21:41 | 35.28020 | 130.52339 | 28829 ft | 462 kts | 88° |
| 2026-04-30 21:41 | 35.28862 | 130.60143 | 28823 ft | 463 kts | 88° |
| 2026-04-30 21:42 | 35.29695 | 130.67962 | 28824 ft | 463 kts | 88° |
| 2026-04-30 21:42 | 35.30526 | 130.75752 | 28823 ft | 460 kts | 88° |
| 2026-04-30 21:43 | 35.31347 | 130.83519 | 28820 ft | 460 kts | 88° |
| 2026-04-30 21:43 | 35.32159 | 130.91232 | 28794 ft | 459 kts | 88° |
| 2026-04-30 21:44 | 35.32980 | 130.98998 | 28785 ft | 460 kts | 88° |
| 2026-04-30 21:44 | 35.33794 | 131.06779 | 28792 ft | 461 kts | 88° |
| 2026-04-30 21:45 | 35.34603 | 131.14580 | 28760 ft | 462 kts | 89° |
| 2026-04-30 21:45 | 35.35414 | 131.22420 | 28789 ft | 465 kts | 89° |
| 2026-04-30 21:46 | 35.36222 | 131.30289 | 28787 ft | 466 kts | 89° |
| 2026-04-30 21:46 | 35.37023 | 131.38165 | 28772 ft | 467 kts | 90° |
| 2026-04-30 21:47 | 35.37813 | 131.46090 | 28805 ft | 469 kts | 90° |
| 2026-04-30 21:47 | 35.38606 | 131.54008 | 28812 ft | 468 kts | 90° |
| 2026-04-30 21:48 | 35.39394 | 131.61926 | 28764 ft | 467 kts | 90° |
| 2026-04-30 21:48 | 35.40178 | 131.69839 | 28767 ft | 468 kts | 90° |
| 2026-04-30 21:49 | 35.40949 | 131.77708 | 28718 ft | 468 kts | 90° |
| 2026-04-30 21:49 | 35.41722 | 131.85660 | 28783 ft | 471 kts | 90° |
| 2026-04-30 21:50 | 35.42506 | 131.93696 | 28797 ft | 472 kts | 91° |
| 2026-04-30 21:50 | 35.43276 | 132.01616 | 28745 ft | 471 kts | 91° |
| 2026-04-30 21:51 | 35.44039 | 132.09594 | 28752 ft | 471 kts | 91° |
| 2026-04-30 21:51 | 35.44797 | 132.17579 | 28770 ft | 472 kts | 91° |
| 2026-04-30 21:52 | 35.45547 | 132.25570 | 28743 ft | 472 kts | 91° |
| 2026-04-30 21:52 | 35.46290 | 132.33566 | 28746 ft | 472 kts | 92° |
| 2026-04-30 21:53 | 35.47029 | 132.41564 | 28697 ft | 472 kts | 92° |
| 2026-04-30 21:53 | 35.47773 | 132.49594 | 28741 ft | 475 kts | 92° |
| 2026-04-30 21:54 | 35.48518 | 132.57652 | 28750 ft | 475 kts | 92° |
| 2026-04-30 21:54 | 35.49254 | 132.65698 | 28695 ft | 474 kts | 93° |
| 2026-04-30 21:55 | 35.49856 | 132.72431 | 28690 ft | 474 kts | 93° |
| 2026-04-30 21:55 | 35.50566 | 132.80480 | 28683 ft | 475 kts | 93° |
| 2026-04-30 21:56 | 35.51276 | 132.88482 | 28716 ft | 475 kts | 92° |
| 2026-04-30 21:56 | 35.51987 | 132.96522 | 28715 ft | 473 kts | 93° |
| 2026-04-30 21:57 | 35.52118 | 133.00500 | 28712 ft | 460 kts | 103° |
| 2026-04-30 21:57 | 35.51688 | 133.04329 | 28669 ft | 445 kts | 115° |
| 2026-04-30 21:57 | 35.50755 | 133.07877 | 28674 ft | 430 kts | 125° |
| 2026-04-30 21:57 | 35.49405 | 133.11082 | 28674 ft | 416 kts | 134° |
| 2026-04-30 21:58 | 35.47732 | 133.13911 | 28670 ft | 404 kts | 142° |
| 2026-04-30 21:58 | 35.45803 | 133.16345 | 28677 ft | 393 kts | 149° |
| 2026-04-30 21:58 | 35.41558 | 133.20479 | 28678 ft | 389 kts | 152° |
| 2026-04-30 21:59 | 35.37287 | 133.24558 | 28683 ft | 389 kts | 153° |
| 2026-04-30 22:00 | 35.30868 | 133.30681 | 28704 ft | 390 kts | 153° |